createdAt,value
2019-02-10T00:00:20.664Z,32.90
2019-02-10T00:02:48.172Z,35.30
2019-02-10T00:05:15.718Z,31.93
2019-02-10T00:07:43.195Z,29.80
2019-02-10T00:10:10.716Z,31.53
2019-02-10T00:12:38.197Z,29.00
2019-02-10T00:15:06.776Z,32.33
2019-02-10T00:17:34.257Z,31.40
2019-02-10T00:20:01.807Z,31.23
2019-02-10T00:22:29.295Z,29.47
2019-02-10T00:24:56.789Z,30.93
2019-02-10T00:27:24.294Z,43.40
2019-02-10T00:29:51.751Z,38.00
2019-02-10T00:32:19.346Z,35.43
2019-02-10T00:34:46.810Z,35.33
2019-02-10T00:37:14.313Z,32.23
2019-02-10T00:39:41.856Z,38.27
2019-02-10T00:42:09.322Z,30.03
2019-02-10T00:44:36.816Z,32.17
2019-02-10T00:47:04.352Z,40.50
2019-02-10T00:49:31.881Z,36.63
2019-02-10T00:51:59.386Z,34.20
2019-02-10T00:54:26.867Z,30.60
2019-02-10T00:56:54.412Z,35.25
2019-02-10T00:59:21.941Z,34.17
2019-02-10T01:01:49.425Z,35.00
2019-02-10T01:04:16.899Z,30.27
2019-02-10T01:06:44.393Z,30.80
2019-02-10T01:09:11.865Z,34.90
2019-02-10T01:11:39.933Z,35.20
2019-02-10T01:14:07.525Z,30.33
2019-02-10T01:16:35.008Z,32.23
2019-02-10T01:19:03.717Z,30.90
2019-02-10T01:21:31.364Z,26.47
2019-02-10T01:23:58.832Z,30.30
2019-02-10T01:26:26.294Z,31.23
2019-02-10T01:28:53.794Z,29.93
2019-02-10T01:31:21.286Z,29.83
2019-02-10T01:33:48.755Z,29.90
2019-02-10T01:36:16.306Z,32.00
2019-02-10T01:38:43.803Z,30.90
2019-02-10T01:41:11.273Z,30.67
2019-02-10T01:43:38.753Z,27.20
2019-02-10T01:46:06.660Z,29.43
2019-02-10T01:48:34.146Z,28.30
2019-02-10T01:51:01.635Z,32.27
2019-02-10T01:53:29.129Z,31.13
2019-02-10T01:55:56.594Z,31.37
2019-02-10T01:58:24.135Z,32.97
2019-02-10T02:00:51.630Z,30.50
2019-02-10T02:03:19.099Z,28.10
2019-02-10T02:05:46.629Z,30.90
2019-02-10T02:08:14.155Z,28.40
2019-02-10T02:10:41.629Z,28.10
2019-02-10T02:13:09.097Z,29.30
2019-02-10T02:15:36.602Z,32.53
2019-02-10T02:18:04.074Z,24.90
2019-02-10T02:20:31.553Z,27.57
2019-02-10T02:22:59.071Z,26.73
2019-02-10T02:25:26.541Z,26.70
2019-02-10T02:27:54.001Z,27.57
2019-02-10T02:30:21.506Z,29.40
2019-02-10T02:32:49.056Z,27.93
2019-02-10T02:35:16.529Z,25.33
2019-02-10T02:37:44.030Z,26.97
2019-02-10T02:40:11.610Z,31.03
2019-02-10T02:42:39.562Z,28.43
2019-02-10T02:45:11.283Z,28.00
2019-02-10T02:47:38.820Z,28.93
2019-02-10T02:50:07.459Z,30.13
2019-02-10T02:52:34.948Z,29.50
2019-02-10T02:55:02.427Z,26.83
2019-02-10T02:57:30.608Z,28.73
2019-02-10T02:59:58.112Z,27.30
2019-02-10T03:02:25.628Z,25.37
2019-02-10T03:04:53.097Z,25.50
2019-02-10T03:07:20.628Z,25.70
2019-02-10T03:09:48.096Z,28.40
2019-02-10T03:12:15.570Z,26.57
2019-02-10T03:14:43.094Z,28.70
2019-02-10T03:17:10.560Z,22.70
2019-02-10T03:19:38.036Z,27.13
2019-02-10T03:22:05.534Z,27.40
2019-02-10T03:24:33.029Z,29.30
2019-02-10T03:27:00.557Z,30.43
2019-02-10T03:29:28.014Z,26.53
2019-02-10T03:31:55.488Z,22.33
2019-02-10T03:34:22.998Z,24.97
2019-02-10T03:36:50.460Z,28.90
2019-02-10T03:39:17.957Z,29.40
2019-02-10T03:41:45.437Z,27.20
2019-02-10T03:44:12.901Z,26.20
2019-02-10T03:46:40.400Z,24.13
2019-02-10T03:49:07.966Z,25.03
2019-02-10T03:51:35.433Z,28.53
2019-02-10T03:54:02.936Z,26.90
2019-02-10T03:56:30.412Z,26.17
2019-02-10T03:58:57.889Z,30.10
2019-02-10T04:01:25.411Z,28.60
2019-02-10T04:03:52.868Z,32.30
2019-02-10T04:06:20.343Z,23.80
2019-02-10T04:08:47.833Z,25.83
2019-02-10T04:11:15.384Z,23.63
2019-02-10T04:13:42.848Z,39.17
2019-02-10T04:16:10.355Z,28.30
2019-02-10T04:18:37.819Z,26.00
2019-02-10T04:21:05.338Z,27.87
2019-02-10T04:23:32.803Z,25.80
2019-02-10T04:26:00.286Z,26.20
2019-02-10T04:28:27.784Z,29.60
2019-02-10T04:30:55.341Z,29.03
2019-02-10T04:33:22.799Z,39.37
2019-02-10T04:35:50.291Z,31.00
2019-02-10T04:38:17.801Z,35.67
2019-02-10T04:40:45.261Z,34.33
2019-02-10T04:43:12.764Z,33.50
2019-02-10T04:45:40.306Z,34.23
2019-02-10T04:48:07.793Z,33.47
2019-02-10T04:50:35.275Z,38.53
2019-02-10T04:53:02.774Z,32.10
2019-02-10T04:55:30.241Z,34.67
2019-02-10T04:57:57.720Z,33.87
2019-02-10T05:00:25.238Z,34.37
2019-02-10T05:02:52.701Z,30.33
2019-02-10T05:05:20.163Z,35.83
2019-02-10T05:07:54.295Z,33.97
2019-02-10T05:10:16.815Z,40.17
2019-02-10T05:12:44.289Z,36.67
2019-02-10T05:15:11.825Z,35.07
2019-02-10T05:17:39.335Z,38.17
2019-02-10T05:20:07.307Z,30.90
2019-02-10T05:22:34.776Z,35.33
2019-02-10T05:25:02.269Z,36.60
2019-02-10T05:27:29.738Z,34.83
2019-02-10T05:29:57.214Z,31.40
2019-02-10T05:32:24.704Z,36.33
2019-02-10T05:34:52.182Z,33.27
2019-02-10T05:37:21.294Z,33.73
2019-02-10T05:39:48.805Z,37.63
2019-02-10T05:42:16.322Z,39.50
2019-02-10T05:44:43.794Z,35.40
2019-02-10T05:47:11.422Z,37.43
2019-02-10T05:49:38.887Z,32.47
2019-02-10T05:52:06.359Z,29.90
2019-02-10T05:54:33.933Z,35.20
2019-02-10T05:57:01.478Z,31.63
2019-02-10T05:59:28.948Z,36.30
2019-02-10T06:02:04.453Z,35.83
2019-02-10T06:04:33.234Z,36.87
2019-02-10T06:07:02.104Z,34.70
2019-02-10T06:09:29.619Z,35.83
2019-02-10T06:11:57.107Z,32.77
2019-02-10T06:14:24.570Z,29.80
2019-02-10T06:16:52.068Z,32.03
2019-02-10T06:19:19.620Z,39.03
2019-02-10T06:21:47.089Z,35.63
2019-02-10T06:24:14.578Z,32.00
2019-02-10T06:26:42.050Z,33.30
2019-02-10T06:29:09.587Z,38.70
2019-02-10T06:31:37.092Z,34.43
2019-02-10T06:34:04.641Z,30.70
2019-02-10T06:36:32.109Z,33.53
2019-02-10T06:38:59.611Z,30.00
2019-02-10T06:41:27.179Z,28.90
2019-02-10T06:43:54.644Z,30.80
2019-02-10T06:46:22.222Z,30.87
2019-02-10T06:48:49.693Z,29.87
2019-02-10T06:51:17.176Z,32.30
2019-02-10T06:53:44.675Z,34.77
2019-02-10T06:56:12.224Z,31.13
2019-02-10T06:58:39.749Z,32.60
2019-02-10T07:01:08.860Z,29.57
2019-02-10T07:03:42.321Z,32.50
2019-02-10T07:06:10.503Z,28.80
2019-02-10T07:08:37.974Z,27.63
2019-02-10T07:11:05.467Z,30.47
2019-02-10T07:13:34.305Z,27.70
2019-02-10T07:16:19.838Z,29.73
2019-02-10T07:19:05.176Z,29.90
2019-02-10T07:21:33.447Z,34.77
2019-02-10T07:24:05.357Z,35.53
2019-02-10T07:26:51.021Z,36.07
2019-02-10T07:29:23.057Z,34.20
2019-02-10T07:31:50.638Z,33.87
2019-02-10T07:34:28.473Z,30.17
2019-02-10T07:37:03.138Z,28.20
2019-02-10T07:39:34.789Z,38.37
2019-02-10T07:42:06.897Z,33.20
2019-02-10T07:44:38.639Z,39.30
2019-02-10T07:47:07.631Z,37.03
2019-02-10T07:49:53.245Z,38.47
2019-02-10T07:52:22.253Z,38.27
2019-02-10T07:55:09.316Z,68.03
2019-02-10T07:57:44.223Z,63.73
2019-02-10T08:00:13.197Z,64.47
2019-02-10T08:02:51.160Z,39.40
2019-02-10T08:05:20.198Z,43.13
2019-02-10T08:07:50.666Z,38.70
2019-02-10T08:10:34.657Z,39.93
2019-02-10T08:13:03.593Z,48.73
2019-02-10T08:15:38.280Z,42.30
2019-02-10T08:18:07.391Z,42.37
2019-02-10T08:20:42.356Z,39.47
2019-02-10T08:23:17.510Z,35.73
2019-02-10T08:25:46.437Z,36.23
2019-02-10T08:28:21.153Z,34.20
2019-02-10T08:30:50.100Z,41.87
2019-02-10T08:33:19.371Z,45.70
2019-02-10T08:36:05.008Z,37.33
2019-02-10T08:38:33.924Z,45.80
2019-02-10T08:41:08.879Z,47.37
2019-02-10T08:43:38.313Z,46.17
2019-02-10T08:46:07.324Z,43.67
2019-02-10T08:48:48.482Z,52.80
2019-02-10T08:51:34.129Z,44.43
2019-02-10T08:54:01.596Z,45.83
2019-02-10T08:56:29.059Z,44.50
2019-02-10T08:58:56.573Z,45.40
2019-02-10T09:01:24.037Z,45.70
2019-02-10T09:03:51.563Z,44.07
2019-02-10T09:06:19.006Z,45.30
2019-02-10T09:08:46.458Z,44.70
2019-02-10T09:11:13.890Z,44.10
2019-02-10T09:13:41.369Z,46.83
2019-02-10T09:16:08.838Z,43.90
2019-02-10T09:18:36.339Z,45.47
2019-02-10T09:21:03.819Z,46.90
2019-02-10T09:23:31.299Z,48.20
2019-02-10T09:25:58.787Z,48.13
2019-02-10T09:28:26.260Z,48.10
2019-02-10T09:30:53.727Z,50.60
2019-02-10T09:33:21.341Z,65.53
2019-02-10T09:35:48.920Z,51.67
2019-02-10T09:38:16.573Z,49.83
2019-02-10T09:40:44.061Z,45.23
2019-02-10T09:43:11.531Z,47.53
2019-02-10T09:45:39.013Z,40.87
2019-02-10T09:48:06.503Z,44.37
2019-02-10T09:50:33.963Z,42.70
2019-02-10T09:53:01.432Z,42.40
2019-02-10T09:55:29.099Z,39.93
2019-02-10T09:57:56.562Z,39.80
2019-02-10T10:00:24.091Z,40.17
2019-02-10T10:02:51.659Z,38.00
2019-02-10T10:05:19.121Z,39.97
2019-02-10T10:07:46.602Z,37.10
2019-02-10T10:10:14.119Z,39.17
2019-02-10T10:12:41.642Z,37.40
2019-02-10T10:15:13.431Z,37.53
2019-02-10T10:17:40.936Z,36.43
2019-02-10T10:20:10.008Z,37.10
2019-02-10T10:22:37.483Z,41.73
2019-02-10T10:25:05.781Z,38.73
2019-02-10T10:27:33.162Z,32.43
2019-02-10T10:30:00.632Z,32.03
2019-02-10T10:32:28.142Z,31.10
2019-02-10T10:34:55.680Z,28.70
2019-02-10T10:37:23.170Z,28.60
2019-02-10T10:39:50.685Z,26.87
2019-02-10T10:42:18.141Z,31.63
2019-02-10T10:44:45.613Z,28.73
2019-02-10T10:47:13.120Z,27.07
2019-02-10T10:49:40.592Z,26.20
2019-02-10T10:52:08.069Z,23.40
2019-02-10T10:54:42.675Z,25.47
2019-02-10T10:57:04.721Z,31.30
2019-02-10T10:59:32.217Z,27.40
2019-02-10T11:01:59.758Z,26.67
2019-02-10T11:04:27.251Z,24.80
2019-02-10T11:06:54.780Z,26.37
2019-02-10T11:09:22.252Z,23.33
2019-02-10T11:11:49.741Z,24.80
2019-02-10T11:14:17.235Z,25.00
2019-02-10T11:16:44.822Z,24.27
2019-02-10T11:19:12.293Z,29.57
2019-02-10T11:21:39.857Z,23.27
2019-02-10T11:24:07.327Z,22.50
2019-02-10T11:26:34.799Z,21.37
2019-02-10T11:29:02.313Z,22.83
2019-02-10T11:31:29.783Z,19.90
2019-02-10T11:33:57.344Z,23.07
2019-02-10T11:36:24.856Z,21.10
2019-02-10T11:38:52.325Z,21.90
2019-02-10T11:41:19.786Z,19.57
2019-02-10T11:43:47.226Z,22.07
2019-02-10T11:46:14.701Z,20.43
2019-02-10T11:48:42.176Z,21.30
2019-02-10T11:51:09.670Z,22.20
2019-02-10T11:53:37.149Z,21.20
2019-02-10T11:56:04.621Z,20.17
2019-02-10T11:58:32.135Z,24.83
2019-02-10T12:00:59.664Z,22.17
2019-02-10T12:03:27.148Z,21.60
2019-02-10T12:05:54.639Z,21.63
2019-02-10T12:08:22.193Z,21.97
2019-02-10T12:10:49.663Z,21.00
2019-02-10T12:13:17.939Z,19.80
2019-02-10T12:15:45.404Z,18.97
2019-02-10T12:18:13.042Z,20.47
2019-02-10T12:20:40.547Z,25.10
2019-02-10T12:23:08.077Z,29.23
2019-02-10T12:25:35.560Z,26.60
2019-02-10T12:28:03.072Z,24.17
2019-02-10T12:30:30.530Z,20.77
2019-02-10T12:32:58.002Z,21.00
2019-02-10T12:35:25.508Z,20.53
2019-02-10T12:37:53.006Z,20.63
2019-02-10T12:40:20.491Z,20.53
2019-02-10T12:42:47.961Z,20.80
2019-02-10T12:45:15.544Z,17.87
2019-02-10T12:47:43.013Z,18.50
2019-02-10T12:50:11.955Z,20.43
2019-02-10T12:52:39.532Z,19.60
2019-02-10T12:55:07.727Z,20.80
2019-02-10T12:57:35.175Z,18.53
2019-02-10T13:00:02.942Z,18.47
2019-02-10T13:02:30.487Z,19.67
2019-02-10T13:04:58.123Z,19.13
2019-02-10T13:07:25.595Z,21.70
2019-02-10T13:09:53.152Z,18.80
2019-02-10T13:12:20.637Z,17.90
2019-02-10T13:14:48.147Z,20.13
2019-02-10T13:17:15.653Z,17.23
2019-02-10T13:19:43.125Z,21.37
2019-02-10T13:22:10.627Z,17.60
2019-02-10T13:24:38.140Z,20.17
2019-02-10T13:27:05.609Z,20.17
2019-02-10T13:29:33.107Z,20.10
2019-02-10T13:32:00.609Z,26.33
2019-02-10T13:34:28.071Z,19.73
2019-02-10T13:36:57.002Z,20.57
2019-02-10T13:39:24.864Z,21.23
2019-02-10T13:41:51.749Z,20.13
2019-02-10T13:44:19.309Z,26.37
2019-02-10T13:46:48.472Z,19.97
2019-02-10T13:49:15.942Z,21.53
2019-02-10T13:51:43.424Z,22.77
2019-02-10T13:54:10.976Z,20.40
2019-02-10T13:56:38.451Z,22.90
2019-02-10T13:59:05.938Z,22.27
2019-02-10T14:01:33.454Z,23.20
2019-02-10T14:04:00.916Z,28.17
2019-02-10T14:06:28.484Z,22.73
2019-02-10T14:08:55.970Z,22.07
2019-02-10T14:11:23.456Z,21.73
2019-02-10T14:13:50.930Z,23.40
2019-02-10T14:16:18.450Z,23.30
2019-02-10T14:18:45.950Z,22.23
2019-02-10T14:21:13.452Z,22.90
2019-02-10T14:23:40.973Z,26.20
2019-02-10T14:26:08.439Z,23.67
2019-02-10T14:28:35.918Z,29.07
2019-02-10T14:31:03.430Z,24.87
2019-02-10T14:33:38.484Z,30.17
2019-02-10T14:36:00.035Z,20.73
2019-02-10T14:38:27.560Z,22.93
2019-02-10T14:40:55.040Z,24.37
2019-02-10T14:43:22.511Z,21.30
2019-02-10T14:45:50.104Z,21.30
2019-02-10T14:48:17.574Z,22.50
2019-02-10T14:50:44.978Z,23.33
2019-02-10T14:53:12.479Z,24.57
2019-02-10T14:55:39.956Z,25.10
2019-02-10T14:58:07.422Z,21.00
2019-02-10T15:00:34.941Z,24.23
2019-02-10T15:03:02.486Z,21.87
2019-02-10T15:05:29.914Z,22.87
2019-02-10T15:07:57.432Z,21.87
2019-02-10T15:10:24.943Z,19.00
2019-02-10T15:12:52.361Z,21.53
2019-02-10T15:15:19.816Z,18.80
2019-02-10T15:17:47.328Z,21.97
2019-02-10T15:20:14.812Z,17.30
2019-02-10T15:22:42.265Z,16.90
2019-02-10T15:25:11.324Z,16.83
2019-02-10T15:27:38.863Z,17.90
2019-02-10T15:30:12.788Z,18.87
2019-02-10T15:32:40.268Z,15.43
2019-02-10T15:35:07.744Z,17.73
2019-02-10T15:37:35.276Z,16.23
2019-02-10T15:40:02.778Z,18.90
2019-02-10T15:42:30.250Z,18.70
2019-02-10T15:44:57.780Z,17.20
2019-02-10T15:47:26.930Z,16.43
2019-02-10T15:49:54.402Z,14.73
2019-02-10T15:52:21.882Z,16.70
2019-02-10T15:54:49.398Z,14.97
2019-02-10T15:57:16.880Z,14.47
2019-02-10T15:59:44.344Z,11.60
2019-02-10T16:02:11.810Z,20.13
2019-02-10T16:04:39.270Z,11.73
2019-02-10T16:07:06.770Z,17.63
2019-02-10T16:09:34.244Z,14.77
2019-02-10T16:12:01.707Z,13.80
2019-02-10T16:14:29.155Z,13.20
2019-02-10T16:16:56.616Z,9.40
2019-02-10T16:19:24.187Z,11.07
2019-02-10T16:21:51.746Z,10.93
2019-02-10T16:24:19.203Z,10.90
2019-02-10T16:26:46.743Z,8.63
2019-02-10T16:29:14.249Z,11.07
2019-02-10T16:31:42.115Z,9.70
2019-02-10T16:34:09.580Z,7.90
2019-02-10T16:36:37.043Z,11.37
2019-02-10T16:39:06.583Z,8.10
2019-02-10T16:41:34.085Z,6.80
2019-02-10T16:44:01.556Z,7.67
2019-02-10T16:46:29.004Z,7.83
2019-02-10T16:48:56.480Z,7.80
2019-02-10T16:51:23.932Z,9.63
2019-02-10T16:53:51.424Z,6.93
2019-02-10T16:56:18.937Z,7.77
2019-02-10T16:58:46.379Z,6.10
2019-02-10T17:01:13.850Z,7.27
2019-02-10T17:03:41.361Z,6.93
2019-02-10T17:06:08.825Z,4.77
2019-02-10T17:08:36.306Z,7.47
2019-02-10T17:11:03.778Z,4.77
2019-02-10T17:13:31.227Z,4.10
2019-02-10T17:16:04.919Z,3.80
2019-02-10T17:18:27.843Z,5.60
2019-02-10T17:20:55.405Z,4.20
2019-02-10T17:23:22.891Z,7.07
2019-02-10T17:25:50.353Z,4.70
2019-02-10T17:28:17.868Z,4.40
2019-02-10T17:30:45.409Z,4.60
2019-02-10T17:33:12.874Z,5.07
2019-02-10T17:35:40.375Z,4.87
2019-02-10T17:38:07.854Z,5.60
2019-02-10T17:40:45.702Z,5.80
2019-02-10T17:43:13.180Z,4.30
2019-02-10T17:45:40.653Z,4.43
2019-02-10T17:48:08.117Z,4.97
2019-02-10T17:50:35.681Z,4.30
2019-02-10T17:53:03.143Z,3.90
2019-02-10T17:55:30.679Z,10.73
2019-02-10T17:57:58.179Z,4.83
2019-02-10T18:00:27.352Z,6.53
2019-02-10T18:02:54.830Z,4.67
2019-02-10T18:05:22.317Z,7.40
2019-02-10T18:07:49.867Z,5.47
2019-02-10T18:10:17.415Z,4.80
2019-02-10T18:12:44.906Z,3.90
2019-02-10T18:15:14.127Z,4.43
2019-02-10T18:17:43.269Z,4.33
2019-02-10T18:20:28.925Z,4.23
2019-02-10T18:23:10.146Z,5.20
2019-02-10T18:25:48.348Z,5.27
2019-02-10T18:28:20.470Z,3.93
2019-02-10T18:30:52.111Z,4.40
2019-02-10T18:33:33.364Z,3.87
2019-02-10T18:36:15.910Z,3.70
2019-02-10T18:38:45.069Z,3.87
2019-02-10T18:41:14.146Z,4.23
2019-02-10T18:43:43.369Z,3.37
2019-02-10T18:46:15.190Z,4.13
2019-02-10T18:48:47.430Z,4.00
2019-02-10T18:51:19.635Z,4.00
2019-02-10T18:53:51.777Z,3.40
2019-02-10T18:56:20.898Z,3.60
2019-02-10T18:59:02.352Z,3.53
2019-02-10T19:01:41.027Z,3.93
2019-02-10T19:04:12.923Z,4.70
2019-02-10T19:06:47.850Z,3.57
2019-02-10T19:09:31.975Z,3.70
2019-02-10T19:12:07.418Z,3.53
2019-02-10T19:14:44.363Z,4.10
2019-02-10T19:17:22.387Z,3.50
2019-02-10T19:19:57.315Z,1.90
2019-02-10T19:22:26.484Z,2.37
2019-02-10T19:25:01.195Z,3.70
2019-02-10T19:27:36.505Z,2.53
2019-02-10T19:30:09.743Z,2.80
2019-02-10T19:32:44.921Z,2.57
2019-02-10T19:35:32.185Z,3.00
2019-02-10T19:38:04.067Z,7.37
2019-02-10T19:40:33.204Z,3.13
2019-02-10T19:43:05.086Z,3.00
2019-02-10T19:45:40.288Z,3.00
2019-02-10T19:48:24.761Z,3.43
2019-02-10T19:50:56.403Z,3.27
2019-02-10T19:53:25.535Z,3.30
2019-02-10T19:56:08.259Z,4.10
2019-02-10T19:58:37.408Z,7.00
2019-02-10T20:01:07.822Z,3.37
2019-02-10T20:03:48.619Z,3.83
2019-02-10T20:06:32.665Z,3.90
2019-02-10T20:09:16.755Z,3.33
2019-02-10T20:11:54.959Z,4.53
2019-02-10T20:14:26.682Z,3.60
2019-02-10T20:17:13.359Z,3.60
2019-02-10T20:20:00.816Z,3.70
2019-02-10T20:22:45.108Z,3.30
2019-02-10T20:25:14.255Z,3.33
2019-02-10T20:28:01.775Z,2.80
2019-02-10T20:30:30.930Z,3.17
2019-02-10T20:33:00.031Z,2.93
2019-02-10T20:35:32.228Z,3.00
2019-02-10T20:38:03.443Z,2.90
2019-02-10T20:40:32.553Z,3.00
2019-02-10T20:43:07.437Z,3.00
2019-02-10T20:45:42.810Z,2.97
2019-02-10T20:48:28.560Z,3.90
2019-02-10T20:51:15.404Z,2.37
2019-02-10T20:53:50.416Z,2.43
2019-02-10T20:56:35.781Z,2.80
2019-02-10T20:59:05.423Z,2.50
2019-02-10T21:01:34.573Z,3.17
2019-02-10T21:04:03.731Z,2.90
2019-02-10T21:06:49.689Z,2.90
2019-02-10T21:09:37.382Z,2.57
2019-02-10T21:12:20.371Z,3.10
2019-02-10T21:15:00.768Z,2.77
2019-02-10T21:17:29.959Z,2.47
2019-02-10T21:20:08.296Z,2.30
2019-02-10T21:22:40.208Z,4.20
2019-02-10T21:25:09.739Z,3.10
2019-02-10T21:27:38.849Z,3.00
2019-02-10T21:30:21.919Z,2.33
2019-02-10T21:32:56.852Z,3.40
2019-02-10T21:35:26.026Z,2.67
2019-02-10T21:37:58.194Z,3.13
2019-02-10T21:40:36.516Z,3.17
2019-02-10T21:43:11.323Z,2.70
2019-02-10T21:45:50.234Z,2.63
2019-02-10T21:48:22.215Z,2.00
2019-02-10T21:50:53.589Z,4.30
2019-02-10T21:53:21.263Z,2.73
2019-02-10T21:55:48.791Z,2.93
2019-02-10T21:58:16.381Z,3.13
2019-02-10T22:00:43.941Z,2.37
2019-02-10T22:03:11.480Z,3.30
2019-02-10T22:05:39.025Z,4.40
2019-02-10T22:08:06.621Z,2.47
2019-02-10T22:10:34.166Z,2.23
2019-02-10T22:13:01.637Z,2.40
2019-02-10T22:15:29.215Z,3.73
2019-02-10T22:17:56.770Z,3.10
2019-02-10T22:20:25.769Z,2.80
2019-02-10T22:22:53.333Z,3.67
2019-02-10T22:25:20.831Z,3.30
2019-02-10T22:27:48.307Z,2.77
2019-02-10T22:30:16.026Z,4.10
2019-02-10T22:32:43.560Z,4.00
2019-02-10T22:35:11.067Z,2.43
2019-02-10T22:37:38.584Z,2.83
2019-02-10T22:40:07.629Z,2.73
2019-02-10T22:42:35.175Z,3.63
2019-02-10T22:45:02.778Z,4.07
2019-02-10T22:47:30.232Z,3.73
2019-02-10T22:49:57.725Z,4.03
2019-02-10T22:52:25.221Z,3.43
2019-02-10T22:54:52.694Z,4.17
2019-02-10T22:57:20.166Z,3.77
2019-02-10T22:59:47.720Z,4.63
2019-02-10T23:02:15.247Z,4.73
2019-02-10T23:04:42.708Z,8.03
2019-02-10T23:07:10.207Z,7.83
2019-02-10T23:09:37.689Z,4.20
2019-02-10T23:12:05.221Z,4.00
2019-02-10T23:14:32.717Z,4.37
2019-02-10T23:17:00.192Z,4.73
2019-02-10T23:19:27.648Z,4.80
2019-02-10T23:21:55.195Z,4.10
2019-02-10T23:24:22.638Z,4.20
2019-02-10T23:26:50.102Z,3.07
2019-02-10T23:29:17.605Z,4.87
2019-02-10T23:31:45.073Z,1.97
2019-02-10T23:34:12.543Z,1.63
2019-02-10T23:36:40.040Z,2.70
2019-02-10T23:39:07.531Z,1.70
2019-02-10T23:41:35.063Z,3.83
2019-02-10T23:44:02.551Z,3.13
2019-02-10T23:46:30.006Z,1.90
2019-02-10T23:48:57.477Z,1.40
2019-02-10T23:51:24.975Z,1.20
2019-02-10T23:53:52.428Z,0.90
2019-02-10T23:56:19.880Z,1.03
2019-02-10T23:58:47.460Z,1.43
